Time;durP1;ratioP1;P1;durP2;ratioP2;P2;SDS_P1;SDS_P2;PMS_P1;PMS_P2;Temp;Humidity;BMP_temperature;BMP_pressure;BME280_temperature;BME280_humidity;BME280_pressure;Samples;Min_cycle;Max_cycle;Signal;HPM_P1;HPM_P2
2023/07/28 00:00:29;;;;;;;30.70;12.90;;;;;;;21.43;100.00;99596.17;107483;1279;72232;-77
2023/07/28 00:02:54;;;;;;;28.20;13.50;;;;;;;21.41;100.00;99584.06;107513;1278;58971;-77
2023/07/28 00:05:20;;;;;;;30.10;13.50;;;;;;;21.41;100.00;99576.61;107539;1279;59129;-78
2023/07/28 00:07:45;;;;;;;25.90;11.80;;;;;;;21.40;100.00;99572.76;107489;1279;59123;-78
2023/07/28 00:10:11;;;;;;;28.70;13.60;;;;;;;21.39;100.00;99583.69;107514;1278;59074;-78
2023/07/28 00:12:36;;;;;;;32.60;14.20;;;;;;;21.39;100.00;99579.00;107452;1279;59310;-78
2023/07/28 00:15:02;;;;;;;24.10;12.30;;;;;;;21.42;100.00;99575.39;107484;1279;59079;-77
2023/07/28 00:17:28;;;;;;;24.60;13.10;;;;;;;21.32;100.00;99568.73;107480;1278;59098;-78
2023/07/28 00:19:53;;;;;;;33.70;13.80;;;;;;;21.28;100.00;99569.55;107076;1279;59190;-78
2023/07/28 00:22:18;;;;;;;28.30;13.80;;;;;;;21.27;100.00;99576.74;107233;1279;376992;-78
2023/07/28 00:24:44;;;;;;;30.70;14.30;;;;;;;21.26;100.00;99577.18;107557;1279;59259;-78
2023/07/28 00:27:10;;;;;;;24.60;12.50;;;;;;;21.21;100.00;99574.48;107500;1279;59036;-77
2023/07/28 00:32:56;;;;;;;33.30;13.90;;;;;;;21.28;100.00;99543.56;107488;1279;71366;-78
2023/07/28 00:35:22;;;;;;;38.70;13.00;;;;;;;21.28;100.00;99546.92;107056;1279;59145;-78
2023/07/28 00:37:47;;;;;;;37.40;14.60;;;;;;;21.29;100.00;99552.45;107378;1279;59078;-77
2023/07/28 00:40:13;;;;;;;25.50;12.90;;;;;;;21.20;100.00;99547.75;107380;1279;59127;-77
2023/07/28 00:42:38;;;;;;;28.40;13.60;;;;;;;21.13;100.00;99546.66;107398;1279;59416;-76
2023/07/28 00:45:04;;;;;;;30.60;12.90;;;;;;;21.08;100.00;99551.56;107177;1279;59151;-77
2023/07/28 00:47:30;;;;;;;24.30;12.80;;;;;;;21.08;100.00;99552.89;106792;1279;59144;-77
2023/07/28 00:49:56;;;;;;;30.80;14.20;;;;;;;21.00;100.00;99557.56;107386;1279;59066;-77
2023/07/28 00:52:21;;;;;;;29.10;14.10;;;;;;;21.07;100.00;99570.95;107412;1279;59024;-76
2023/07/28 00:54:47;;;;;;;27.90;13.10;;;;;;;21.10;100.00;99575.65;107365;1279;59149;-77
2023/07/28 00:57:13;;;;;;;32.80;13.90;;;;;;;21.10;100.00;99588.88;107410;1279;59416;-77
2023/07/28 00:59:38;;;;;;;31.30;14.30;;;;;;;21.12;100.00;99613.89;107357;1279;75538;-77
2023/07/28 01:02:04;;;;;;;30.40;14.50;;;;;;;21.11;100.00;99646.91;107374;1279;59806;-76
2023/07/28 01:04:30;;;;;;;28.70;13.90;;;;;;;21.18;100.00;99660.53;107329;1280;59157;-76
2023/07/28 01:07:04;;;;;;;30.60;14.40;;;;;;;21.17;100.00;99657.86;107371;1279;58963;-76
2023/07/28 01:09:43;;;;;;;37.90;14.90;;;;;;;21.17;100.00;99653.30;107337;1279;59944;-77
2023/07/28 01:12:09;;;;;;;37.10;15.00;;;;;;;21.16;100.00;99644.04;107377;1279;74511;-77
2023/07/28 01:21:22;;;;;;;36.40;16.20;;;;;;;21.34;100.00;99614.41;107333;1279;60602;-77
2023/07/28 01:24:07;;;;;;;40.30;17.00;;;;;;;21.29;100.00;99596.77;107377;1279;61017;-78
2023/07/28 01:26:37;;;;;;;37.40;16.20;;;;;;;21.30;100.00;99572.89;107343;1279;75425;-77
2023/07/28 01:29:04;;;;;;;38.40;15.60;;;;;;;21.33;100.00;99551.10;107376;1279;74805;-77
2023/07/28 01:31:30;;;;;;;31.80;15.00;;;;;;;21.26;100.00;99529.91;107353;1279;73453;-76
2023/07/28 01:33:56;;;;;;;37.50;15.60;;;;;;;21.14;100.00;99518.90;107337;1279;59009;-77
2023/07/28 01:36:22;;;;;;;35.20;15.30;;;;;;;21.06;100.00;99514.95;107465;1278;59012;-78
2023/07/28 01:38:47;;;;;;;32.70;15.40;;;;;;;21.07;100.00;99523.84;107508;1278;59000;-77
2023/07/28 01:41:13;;;;;;;41.90;16.30;;;;;;;21.06;100.00;99527.02;107498;1278;59981;-78
2023/07/28 01:43:38;;;;;;;39.90;14.90;;;;;;;21.10;100.00;99517.74;107527;1278;59087;-76
2023/07/28 01:46:04;;;;;;;27.60;14.70;;;;;;;21.15;100.00;99513.44;107511;1279;58987;-76
2023/07/28 01:48:29;;;;;;;33.30;15.10;;;;;;;21.07;100.00;99515.67;107467;1279;59172;-76
2023/07/28 01:50:55;;;;;;;32.80;16.30;;;;;;;21.05;100.00;99513.85;107514;1279;58966;-76
2023/07/28 01:53:21;;;;;;;49.00;17.10;;;;;;;21.05;100.00;99515.56;107359;1279;59076;-77
2023/07/28 01:55:46;;;;;;;38.70;17.30;;;;;;;21.15;100.00;99490.90;107563;1279;58958;-76
2023/07/28 01:58:12;;;;;;;35.90;16.80;;;;;;;21.11;100.00;99487.45;107495;1279;75642;-76
2023/07/28 02:00:37;;;;;;;38.40;17.50;;;;;;;21.11;100.00;99493.32;107509;1279;59057;-76
2023/07/28 02:03:03;;;;;;;39.90;17.10;;;;;;;21.17;100.00;99507.86;107488;1279;59112;-77
2023/07/28 02:05:29;;;;;;;44.40;18.10;;;;;;;21.24;100.00;99513.19;107479;1279;58959;-77
2023/07/28 02:11:16;;;;;;;47.00;17.60;;;;;;;21.24;100.00;99540.66;107471;1279;74430;-76
2023/07/28 02:13:42;;;;;;;41.90;17.90;;;;;;;21.24;100.00;99550.46;107320;1278;59145;-76
2023/07/28 02:16:07;;;;;;;40.00;17.70;;;;;;;21.23;100.00;99549.23;107456;1279;58996;-76
2023/07/28 02:18:33;;;;;;;47.60;18.90;;;;;;;21.26;100.00;99545.09;107355;1280;59052;-76
2023/07/28 02:20:58;;;;;;;44.50;18.40;;;;;;;21.29;100.00;99545.06;107597;1279;59079;-77
2023/07/28 02:23:24;;;;;;;41.50;18.60;;;;;;;21.33;100.00;99547.66;107499;1279;59075;-77
2023/07/28 02:25:50;;;;;;;46.10;19.00;;;;;;;21.38;100.00;99554.95;107474;1279;59024;-76
2023/07/28 02:28:16;;;;;;;46.50;19.20;;;;;;;21.40;100.00;99579.16;107191;1282;59419;-76
2023/07/28 02:30:41;;;;;;;40.90;18.20;;;;;;;21.40;100.00;99588.66;107502;1279;58970;-76
2023/07/28 02:36:28;;;;;;;52.00;18.80;;;;;;;21.39;100.00;99604.27;107463;1279;72219;-76
2023/07/28 02:38:54;;;;;;;38.60;17.70;;;;;;;21.38;100.00;99621.80;107551;1279;59064;-75
2023/07/28 02:44:41;;;;;;;40.80;17.60;;;;;;;21.38;100.00;99631.60;107473;1279;59249;-76
2023/07/28 02:47:07;;;;;;;42.60;19.40;;;;;;;21.38;100.00;99615.15;107455;1279;59072;-76
2023/07/28 02:49:32;;;;;;;54.20;20.10;;;;;;;21.35;100.00;99587.71;106892;1280;59399;-76
2023/07/28 02:51:58;;;;;;;51.90;19.50;;;;;;;21.35;100.00;99562.57;107465;1278;59467;-76
2023/07/28 02:54:25;;;;;;;44.60;19.40;;;;;;;21.34;100.00;99536.57;106882;1278;59015;-76
2023/07/28 02:56:50;;;;;;;48.80;19.60;;;;;;;21.31;100.00;99541.44;107499;1278;59060;-78
2023/07/28 02:59:16;;;;;;;40.50;18.60;;;;;;;21.31;100.00;99564.45;107474;1279;58988;-77
2023/07/28 03:01:41;;;;;;;41.30;18.30;;;;;;;21.31;100.00;99591.95;107490;1279;59252;-77
2023/07/28 03:04:07;;;;;;;40.20;18.70;;;;;;;21.32;100.00;99618.85;107451;1280;59029;-76
2023/07/28 03:06:33;;;;;;;42.60;18.20;;;;;;;21.35;100.00;99617.03;107500;1278;59066;-76
2023/07/28 03:08:59;;;;;;;42.80;18.80;;;;;;;21.34;100.00;99576.66;107465;1280;59087;-76
2023/07/28 03:11:24;;;;;;;46.40;18.20;;;;;;;21.35;100.00;99541.14;106856;1280;59055;-76
2023/07/28 03:13:50;;;;;;;49.40;21.30;;;;;;;21.40;100.00;99528.20;107513;1279;59054;-77
2023/07/28 03:16:15;;;;;;;51.10;20.40;;;;;;;21.40;100.00;99513.55;107472;1278;59076;-79
2023/07/28 03:18:41;;;;;;;51.40;20.60;;;;;;;21.43;100.00;99510.33;107500;1279;59119;-78
2023/07/28 03:21:08;;;;;;;72.90;22.50;;;;;;;21.51;100.00;99505.64;107475;1278;59039;-79
2023/07/28 03:23:33;;;;;;;51.60;21.30;;;;;;;21.56;100.00;99501.98;107448;1279;59015;-77
2023/07/28 03:25:59;;;;;;;59.00;21.30;;;;;;;21.60;100.00;99500.11;107192;1280;59278;-78
2023/07/28 03:28:24;;;;;;;51.80;21.50;;;;;;;21.62;100.00;99502.88;107535;1278;59115;-77
2023/07/28 03:30:50;;;;;;;50.00;20.60;;;;;;;21.66;100.00;99504.45;107360;1280;74367;-77
2023/07/28 03:33:16;;;;;;;40.80;19.00;;;;;;;21.69;100.00;99521.13;107174;1280;59485;-78
2023/07/28 03:35:41;;;;;;;52.90;20.00;;;;;;;21.67;100.00;99524.06;107454;1279;59088;-77
2023/07/28 03:38:07;;;;;;;50.00;20.50;;;;;;;21.68;100.00;99518.13;107297;1278;59240;-76
2023/07/28 03:43:54;;;;;;;52.70;19.80;;;;;;;21.71;100.00;99510.44;107437;1279;72260;-77
2023/07/28 03:46:20;;;;;;;49.30;20.50;;;;;;;21.73;100.00;99511.55;107087;1279;59482;-77
2023/07/28 03:48:45;;;;;;;44.90;19.70;;;;;;;21.71;100.00;99509.82;107504;1279;59107;-77
2023/07/28 03:51:11;;;;;;;48.60;19.50;;;;;;;21.68;100.00;99507.63;107554;1278;59751;-77
2023/07/28 03:53:36;;;;;;;43.40;21.10;;;;;;;21.63;100.00;99511.05;107468;1280;59464;-77
2023/07/28 03:56:03;;;;;;;50.70;22.70;;;;;;;21.61;100.00;99523.31;107477;1279;61569;-78
2023/07/28 03:58:29;;;;;;;58.60;25.00;;;;;;;21.57;100.00;99531.06;107486;1280;59040;-77
2023/07/28 04:00:54;;;;;;;56.10;24.40;;;;;;;21.58;100.00;99528.02;107491;1279;59062;-77
2023/07/28 04:03:20;;;;;;;57.70;24.20;;;;;;;21.57;100.00;99524.71;107494;1279;59567;-77
2023/07/28 04:05:46;;;;;;;57.80;23.90;;;;;;;21.55;100.00;99525.08;107474;1278;59015;-77
2023/07/28 04:08:11;;;;;;;60.70;24.50;;;;;;;21.55;100.00;99535.10;107474;1279;59322;-77
2023/07/28 04:10:37;;;;;;;62.10;26.80;;;;;;;21.53;100.00;99547.11;107523;1280;59114;-77
2023/07/28 04:13:02;;;;;;;58.20;25.30;;;;;;;21.51;100.00;99552.70;107104;1280;59163;-76
2023/07/28 04:15:27;;;;;;;55.20;25.50;;;;;;;21.53;100.00;99557.21;107454;1280;59169;-78
2023/07/28 04:17:53;;;;;;;65.90;25.30;;;;;;;21.54;100.00;99550.81;107176;1280;59387;-77
2023/07/28 04:20:18;;;;;;;57.20;24.40;;;;;;;21.60;100.00;99548.05;107478;1279;59064;-77
2023/07/28 04:22:44;;;;;;;60.60;26.60;;;;;;;21.56;100.00;99550.55;107553;1280;59182;-77
2023/07/28 04:25:09;;;;;;;59.90;25.90;;;;;;;21.57;100.00;99546.80;107480;1279;59061;-77
2023/07/28 04:27:35;;;;;;;58.40;25.10;;;;;;;21.50;100.00;99546.35;107036;1278;59165;-77
2023/07/28 04:30:01;;;;;;;67.70;26.00;;;;;;;21.41;100.00;99549.52;107502;1280;59123;-78
2023/07/28 04:32:26;;;;;;;66.30;26.10;;;;;;;21.37;100.00;99557.33;107513;1279;59118;-78
2023/07/28 04:34:53;;;;;;;67.60;26.40;;;;;;;21.39;100.00;99551.42;107476;1279;59084;-78
2023/07/28 04:37:19;;;;;;;60.80;25.60;;;;;;;21.49;100.00;99553.61;107443;1278;61561;-77
2023/07/28 04:39:44;;;;;;;63.70;26.50;;;;;;;21.65;100.00;99546.75;107512;1280;59077;-77
2023/07/28 04:42:10;;;;;;;69.10;27.20;;;;;;;21.70;100.00;99540.19;107519;1279;58989;-77
2023/07/28 04:44:39;;;;;;;66.00;25.90;;;;;;;21.70;100.00;99539.00;107516;1279;59214;-77
2023/07/28 04:50:26;;;;;;;58.00;25.00;;;;;;;21.80;100.00;99554.88;107478;1278;61731;-77
2023/07/28 04:52:52;;;;;;;71.40;26.90;;;;;;;21.85;100.00;99562.19;107494;1279;59062;-77
2023/07/28 04:55:18;;;;;;;58.30;25.30;;;;;;;21.91;100.00;99567.26;107470;1279;58990;-78
2023/07/28 04:57:43;;;;;;;68.10;26.10;;;;;;;21.90;100.00;99563.07;107502;1280;59019;-78
2023/07/28 05:00:09;;;;;;;65.60;27.10;;;;;;;21.74;100.00;99565.04;107501;1280;59070;-78
2023/07/28 05:02:34;;;;;;;56.20;26.10;;;;;;;21.83;100.00;99553.69;107434;1278;59934;-77
2023/07/28 05:05:00;;;;;;;55.60;25.50;;;;;;;21.84;100.00;99552.07;107458;1280;59073;-78
2023/07/28 05:07:25;;;;;;;53.30;24.90;;;;;;;21.80;100.00;99559.89;107477;1280;59120;-77
2023/07/28 05:09:51;;;;;;;52.80;24.40;;;;;;;21.78;100.00;99567.86;107462;1279;59104;-77
2023/07/28 05:12:17;;;;;;;59.30;26.60;;;;;;;21.82;100.00;99571.55;107520;1279;59435;-77
2023/07/28 05:14:43;;;;;;;58.20;26.50;;;;;;;21.83;100.00;99577.36;107510;1279;75484;-78
2023/07/28 05:17:08;;;;;;;59.80;26.00;;;;;;;21.83;100.00;99569.84;107397;1279;59029;-77
2023/07/28 05:19:34;;;;;;;59.60;26.30;;;;;;;21.82;100.00;99560.95;107447;1280;59109;-77
2023/07/28 05:22:00;;;;;;;68.60;27.60;;;;;;;21.83;100.00;99551.73;107481;1279;59103;-78
2023/07/28 05:24:25;;;;;;;63.70;27.30;;;;;;;21.87;100.00;99556.27;107529;1279;59086;-77
2023/07/28 05:30:13;;;;;;;61.50;26.10;;;;;;;21.95;100.00;99556.76;107469;1279;72376;-77
2023/07/28 05:32:38;;;;;;;59.50;25.10;;;;;;;21.91;100.00;99552.04;107450;1278;59073;-78
2023/07/28 05:35:04;;;;;;;61.40;25.60;;;;;;;21.83;100.00;99549.38;107459;1279;59389;-77
2023/07/28 05:37:30;;;;;;;57.00;26.60;;;;;;;21.78;100.00;99554.38;107498;1279;59429;-77
2023/07/28 05:39:55;;;;;;;58.60;26.70;;;;;;;21.76;100.00;99557.94;107079;1279;59314;-77
2023/07/28 05:45:46;;;;;;;62.90;27.70;;;;;;;21.72;100.00;99580.59;107477;1279;59841;-77
2023/07/28 05:48:12;;;;;;;70.60;32.10;;;;;;;21.71;100.00;99588.02;107504;1279;75857;-77
2023/07/28 05:50:40;;;;;;;77.10;32.40;;;;;;;21.79;100.00;99591.21;107530;1279;59119;-76
2023/07/28 05:53:06;;;;;;;99.40;39.20;;;;;;;21.92;100.00;99596.83;107187;1280;72418;-77
2023/07/28 05:55:31;;;;;;;100.40;38.70;;;;;;;22.07;100.00;99608.17;107464;1278;59059;-77
2023/07/28 05:57:57;;;;;;;94.80;36.00;;;;;;;22.15;100.00;99618.52;107502;1279;59132;-78
2023/07/28 06:00:22;;;;;;;79.00;32.00;;;;;;;22.18;100.00;99626.76;107522;1280;59030;-78
2023/07/28 06:02:48;;;;;;;78.20;30.80;;;;;;;22.29;100.00;99627.62;107507;1279;59076;-77
2023/07/28 06:05:13;;;;;;;72.50;29.70;;;;;;;22.37;100.00;99616.32;107487;1279;59049;-77
2023/07/28 06:07:39;;;;;;;67.20;27.70;;;;;;;22.40;100.00;99598.59;107222;1280;59093;-78
2023/07/28 06:10:05;;;;;;;64.90;28.70;;;;;;;22.31;100.00;99576.83;107501;1279;59018;-77
2023/07/28 06:15:54;;;;;;;59.20;26.80;;;;;;;22.28;100.00;99558.35;107455;1280;71654;-77
2023/07/28 06:18:22;;;;;;;65.70;28.70;;;;;;;22.20;100.00;99533.75;107465;1280;61715;-77
2023/07/28 06:20:47;;;;;;;65.70;28.00;;;;;;;22.23;100.00;99513.41;107476;1279;60011;-77
2023/07/28 06:23:13;;;;;;;66.60;29.20;;;;;;;22.24;100.00;99514.19;107467;1279;59077;-77
2023/07/28 06:25:43;;;;;;;62.40;27.40;;;;;;;22.20;100.00;99541.80;107439;1280;59109;-77
2023/07/28 06:28:09;;;;;;;62.50;27.00;;;;;;;22.13;100.00;99566.02;107171;1279;73377;-77
2023/07/28 06:30:35;;;;;;;64.90;28.60;;;;;;;22.12;100.00;99557.39;107063;1280;59031;-77
2023/07/28 06:33:00;;;;;;;69.80;28.70;;;;;;;22.18;100.00;99542.48;107496;1279;59147;-77
2023/07/28 06:35:27;;;;;;;69.50;28.10;;;;;;;22.28;100.00;99528.86;107495;1279;59034;-77
2023/07/28 06:37:52;;;;;;;60.90;26.70;;;;;;;22.33;100.00;99514.68;107438;1278;59145;-76
2023/07/28 06:40:18;;;;;;;67.70;30.00;;;;;;;22.30;100.00;99501.75;107427;1280;59042;-77
2023/07/28 06:42:43;;;;;;;60.00;27.20;;;;;;;22.24;100.00;99521.73;107576;1279;58980;-77
2023/07/28 06:45:09;;;;;;;59.00;27.60;;;;;;;22.26;100.00;99533.77;107219;1279;59095;-77
2023/07/28 06:47:34;;;;;;;62.60;28.10;;;;;;;22.41;100.00;99529.49;107519;1280;59289;-77
2023/07/28 06:50:00;;;;;;;70.70;28.40;;;;;;;22.60;100.00;99553.58;107279;1279;59108;-77
2023/07/28 06:52:25;;;;;;;57.90;26.70;;;;;;;22.74;100.00;99594.95;107335;1280;59116;-76
2023/07/28 06:54:51;;;;;;;59.20;27.10;;;;;;;22.93;100.00;99616.79;107521;1279;59047;-77
2023/07/28 06:57:16;;;;;;;51.60;26.20;;;;;;;23.11;100.00;99611.20;107485;1280;59083;-76
2023/07/28 06:59:42;;;;;;;51.30;25.50;;;;;;;23.30;100.00;99606.70;107332;1280;59244;-76
2023/07/28 07:02:09;;;;;;;48.20;25.00;;;;;;;23.76;100.00;99614.90;107461;1279;58936;-77
2023/07/28 07:04:34;;;;;;;43.80;24.10;;;;;;;24.08;100.00;99611.95;107497;1279;59024;-77
2023/07/28 07:10:22;;;;;;;41.50;22.20;;;;;;;24.42;100.00;99606.84;107537;1279;71535;-77
2023/07/28 07:12:47;;;;;;;44.20;23.80;;;;;;;24.18;100.00;99601.14;107484;1279;59003;-77
2023/07/28 07:15:13;;;;;;;38.60;22.50;;;;;;;24.35;100.00;99595.35;107007;1278;59273;-77
2023/07/28 07:17:39;;;;;;;42.10;23.60;;;;;;;24.63;100.00;99582.74;107480;1279;59096;-77
2023/07/28 07:20:06;;;;;;;42.10;23.30;;;;;;;24.87;100.00;99572.55;107488;1279;59018;-77
2023/07/28 07:22:31;;;;;;;39.90;22.60;;;;;;;25.23;100.00;99558.25;107449;1280;59005;-77
2023/07/28 07:24:57;;;;;;;37.10;20.30;;;;;;;25.43;100.00;99548.77;107494;1280;59075;-78
2023/07/28 07:27:24;;;;;;;33.80;20.00;;;;;;;25.61;100.00;99531.91;107118;1279;59121;-77
2023/07/28 07:29:49;;;;;;;35.40;20.40;;;;;;;25.67;100.00;99512.14;107015;1280;75296;-78
2023/07/28 07:32:16;;;;;;;32.30;19.70;;;;;;;25.70;100.00;99510.73;107200;1282;59139;-77
2023/07/28 07:34:42;;;;;;;33.40;18.40;;;;;;;25.61;100.00;99507.39;107430;1280;59411;-78
2023/07/28 07:37:09;;;;;;;31.20;19.00;;;;;;;25.59;100.00;99520.08;107459;1278;59031;-77
2023/07/28 07:39:36;;;;;;;35.80;20.80;;;;;;;25.62;100.00;99539.48;107524;1280;59153;-77
2023/07/28 07:42:01;;;;;;;33.30;20.50;;;;;;;25.67;100.00;99560.23;107442;1280;59050;-78
2023/07/28 07:44:27;;;;;;;34.10;20.40;;;;;;;25.70;100.00;99579.27;107498;1279;59068;-77
2023/07/28 07:46:52;;;;;;;33.60;19.90;;;;;;;25.69;100.00;99580.91;107453;1278;59296;-77
2023/07/28 07:49:18;;;;;;;34.60;21.10;;;;;;;25.70;100.00;99576.19;107377;1280;59239;-78
2023/07/28 07:51:43;;;;;;;38.10;21.20;;;;;;;25.62;100.00;99571.02;107496;1280;74808;-77
2023/07/28 07:54:09;;;;;;;41.10;20.20;;;;;;;25.58;100.00;99571.86;107544;1279;59068;-77
2023/07/28 07:56:34;;;;;;;36.90;21.60;;;;;;;25.55;100.00;99570.67;107484;1279;59062;-78
2023/07/28 07:59:00;;;;;;;41.60;23.60;;;;;;;25.52;100.00;99562.69;107477;1279;59020;-78
2023/07/28 08:01:25;;;;;;;42.00;24.00;;;;;;;25.58;100.00;99558.70;107574;1279;59068;-77
2023/07/28 08:03:51;;;;;;;40.30;22.30;;;;;;;25.57;100.00;99564.94;107223;1282;59113;-78
2023/07/28 08:06:17;;;;;;;38.30;22.90;;;;;;;25.80;100.00;99564.65;107493;1279;59075;-78
2023/07/28 08:08:42;;;;;;;40.90;21.30;;;;;;;25.99;100.00;99555.58;107469;1279;59056;-78
2023/07/28 08:11:08;;;;;;;38.20;21.00;;;;;;;26.18;100.00;99550.90;107235;1279;59082;-78
2023/07/28 08:13:33;;;;;;;33.00;19.00;;;;;;;26.35;100.00;99550.30;107545;1279;59014;-78
2023/07/28 08:15:59;;;;;;;38.40;21.00;;;;;;;26.59;100.00;99552.17;107181;1282;72363;-77
2023/07/28 08:18:24;;;;;;;34.90;20.90;;;;;;;26.83;100.00;99545.39;107377;1280;59043;-78
2023/07/28 08:20:50;;;;;;;36.30;20.20;;;;;;;27.18;100.00;99543.55;107115;1279;59086;-78
2023/07/28 08:23:15;;;;;;;36.30;21.50;;;;;;;27.50;100.00;99539.05;107554;1279;59417;-79
2023/07/28 08:25:41;;;;;;;44.30;22.10;;;;;;;27.25;100.00;99531.52;107541;1279;59073;-78
2023/07/28 08:28:06;;;;;;;32.50;20.20;;;;;;;26.87;100.00;99533.45;107463;1279;59035;-78
2023/07/28 08:30:32;;;;;;;36.50;21.90;;;;;;;26.59;100.00;99538.52;107523;1279;58979;-78
2023/07/28 08:32:58;;;;;;;40.00;21.70;;;;;;;26.68;100.00;99535.92;107501;1279;59026;-78
2023/07/28 08:35:23;;;;;;;34.70;21.20;;;;;;;26.87;100.00;99536.14;107127;1279;59345;-77
2023/07/28 08:37:49;;;;;;;33.60;20.30;;;;;;;26.98;100.00;99538.58;107228;1279;59096;-79
2023/07/28 08:40:14;;;;;;;33.80;21.60;;;;;;;26.96;100.00;99541.50;107492;1279;61259;-79
2023/07/28 08:42:41;;;;;;;31.10;18.90;;;;;;;26.90;100.00;99538.59;107214;1280;59179;-77
2023/07/28 08:45:10;;;;;;;33.80;19.80;;;;;;;26.79;100.00;99534.73;107495;1279;59361;-79
2023/07/28 08:47:37;;;;;;;38.70;20.00;;;;;;;26.67;100.00;99528.73;107058;1279;73625;-79
2023/07/28 08:50:03;;;;;;;31.80;19.80;;;;;;;26.82;100.00;99522.24;107479;1279;62614;-78
2023/07/28 08:52:28;;;;;;;36.10;19.00;;;;;;;27.34;100.00;99526.13;107365;1280;59048;-80
2023/07/28 08:54:54;;;;;;;30.30;17.50;;;;;;;28.09;100.00;99521.70;107520;1279;59098;-80
2023/07/28 08:57:20;;;;;;;30.50;18.00;;;;;;;28.77;100.00;99513.70;107503;1279;59038;-81
2023/07/28 08:59:49;;;;;;;27.10;17.40;;;;;;;29.26;100.00;99510.39;106871;1278;59203;-80
2023/07/28 09:02:16;;;;;;;28.80;17.00;;;;;;;30.14;100.00;99500.88;107508;1278;58998;-80
2023/07/28 09:04:46;;;;;;;27.50;17.30;;;;;;;30.69;100.00;99495.41;107515;1279;60152;-81
2023/07/28 09:07:12;;;;;;;28.20;16.60;;;;;;;30.36;100.00;99498.64;107553;1279;75786;-81
2023/07/28 09:09:38;;;;;;;31.20;18.20;;;;;;;29.58;100.00;99505.73;107381;1280;73311;-81
2023/07/28 09:12:04;;;;;;;26.70;17.90;;;;;;;28.95;100.00;99507.37;107350;1279;59143;-79
2023/07/28 09:14:30;;;;;;;28.60;18.00;;;;;;;28.67;100.00;99507.87;107491;1278;59054;-81
2023/07/28 09:17:06;;;;;;;25.10;16.50;;;;;;;28.58;100.00;99510.31;107546;1279;59547;-80
2023/07/28 09:19:32;;;;;;;28.70;17.20;;;;;;;28.27;100.00;99506.39;107482;1280;75438;-80
2023/07/28 09:21:59;;;;;;;27.00;16.60;;;;;;;27.91;100.00;99509.86;107547;1279;58993;-81
2023/07/28 09:24:34;;;;;;;27.00;16.80;;;;;;;27.49;100.00;99514.69;107490;1279;59103;-80
2023/07/28 09:27:01;;;;;;;30.60;17.20;;;;;;;27.07;100.00;99512.90;107494;1279;61853;-80
2023/07/28 09:29:29;;;;;;;25.00;16.60;;;;;;;26.69;100.00;99514.90;106598;1280;60858;-81
2023/07/28 09:32:04;;;;;;;25.40;16.10;;;;;;;26.39;100.00;99518.02;107074;1279;74494;-81
2023/07/28 09:34:29;;;;;;;22.90;15.90;;;;;;;26.10;100.00;99515.94;107549;1278;74164;-80
2023/07/28 09:36:59;;;;;;;27.10;17.00;;;;;;;26.02;100.00;99509.53;107325;1279;59350;-81
2023/07/28 09:39:26;;;;;;;24.40;15.30;;;;;;;25.92;100.00;99506.59;107357;1279;61684;-81
2023/07/28 09:41:52;;;;;;;23.90;16.00;;;;;;;25.81;100.00;99503.61;107410;1279;59155;-81
2023/07/28 09:44:18;;;;;;;28.20;16.20;;;;;;;25.73;100.00;99508.63;107005;1282;59103;-81
2023/07/28 09:46:55;;;;;;;23.80;16.10;;;;;;;25.55;100.00;99516.42;107029;1282;59103;-81
2023/07/28 09:49:42;;;;;;;25.90;16.20;;;;;;;25.11;100.00;99523.83;107026;1282;72461;-81
2023/07/28 09:52:09;;;;;;;25.80;15.80;;;;;;;24.76;100.00;99535.21;106981;1282;61664;-82
2023/07/28 09:54:43;;;;;;;28.20;17.80;;;;;;;24.55;100.00;99545.91;107035;1282;60127;-81
2023/07/28 09:57:15;;;;;;;30.20;17.10;;;;;;;24.27;100.00;99543.56;107017;1282;75122;-81
2023/07/28 09:59:42;;;;;;;27.40;17.20;;;;;;;23.98;100.00;99552.38;107046;1282;73325;-81
2023/07/28 10:02:08;;;;;;;26.60;17.20;;;;;;;23.82;100.00;99554.63;107039;1282;73353;-81
2023/07/28 10:04:34;;;;;;;28.90;17.10;;;;;;;23.66;100.00;99556.30;106709;1282;58996;-81
2023/07/28 10:07:01;;;;;;;27.00;17.00;;;;;;;23.49;100.00;99570.84;107066;1283;59393;-81
2023/07/28 10:09:30;;;;;;;27.10;17.60;;;;;;;23.25;100.00;99570.73;106992;1282;59182;-81
2023/07/28 10:11:55;;;;;;;40.30;19.20;;;;;;;23.13;100.00;99572.98;107064;1282;74196;-81
2023/07/28 10:14:30;;;;;;;34.60;18.20;;;;;;;22.97;100.00;99575.31;107020;1282;59173;-79
2023/07/28 10:16:56;;;;;;;34.80;18.70;;;;;;;22.77;100.00;99578.89;107363;1279;62869;-78
2023/07/28 10:19:25;;;;;;;34.30;18.00;;;;;;;22.64;100.00;99582.14;107180;1280;59071;-77
2023/07/28 10:22:02;;;;;;;28.10;17.80;;;;;;;22.50;100.00;99581.64;107371;1279;75454;-78
2023/07/28 10:24:56;;;;;;;29.30;17.00;;;;;;;22.39;100.00;99585.30;107407;1279;74397;-79
2023/07/28 10:27:34;;;;;;;26.30;15.60;;;;;;;22.34;100.00;99590.70;107354;1279;72705;-78
2023/07/28 10:30:01;;;;;;;24.20;15.10;;;;;;;22.25;100.00;99592.71;107421;1279;62936;-79
2023/07/28 10:32:36;;;;;;;22.50;13.20;;;;;;;22.17;100.00;99595.15;107349;1279;60934;-78
2023/07/28 10:35:27;;;;;;;20.20;12.00;;;;;;;22.04;100.00;99591.98;107409;1280;74495;-79
2023/07/28 10:37:56;;;;;;;19.50;11.80;;;;;;;21.89;100.00;99591.50;107452;1278;74750;-78
2023/07/28 10:40:35;;;;;;;20.60;11.50;;;;;;;21.83;100.00;99591.46;107198;1278;72245;-78
2023/07/28 10:43:02;;;;;;;20.60;11.30;;;;;;;21.83;100.00;99595.60;107474;1278;61844;-77
2023/07/28 10:45:30;;;;;;;21.40;10.90;;;;;;;21.75;100.00;99594.42;107497;1278;61141;-77
2023/07/28 10:47:59;;;;;;;15.40;9.60;;;;;;;21.71;100.00;99601.02;107490;1278;75152;-78
2023/07/28 10:50:27;;;;;;;17.90;9.80;;;;;;;21.67;100.00;99613.69;107417;1278;73455;-77
2023/07/28 10:52:52;;;;;;;14.10;8.90;;;;;;;21.59;100.00;99616.88;107461;1278;73541;-77
2023/07/28 10:55:20;;;;;;;25.30;10.20;;;;;;;21.52;100.00;99620.64;107267;1280;59196;-77
2023/07/28 10:57:48;;;;;;;18.10;9.70;;;;;;;21.51;100.00;99622.66;107488;1278;60899;-78
2023/07/28 11:00:18;;;;;;;14.00;8.90;;;;;;;21.50;100.00;99624.82;107496;1279;75598;-77
2023/07/28 11:02:49;;;;;;;40.50;10.30;;;;;;;21.45;100.00;99627.38;107494;1278;73419;-78
2023/07/28 11:05:24;;;;;;;23.30;9.50;;;;;;;21.50;100.00;99629.05;107475;1279;73644;-77
2023/07/28 11:07:51;;;;;;;15.50;8.80;;;;;;;21.49;100.00;99629.27;107544;1278;62088;-78
2023/07/28 11:10:18;;;;;;;15.80;8.40;;;;;;;21.50;100.00;99627.02;107048;1279;61080;-76
2023/07/28 11:12:46;;;;;;;13.30;8.00;;;;;;;21.50;100.00;99625.23;107526;1279;74459;-78
2023/07/28 11:15:13;;;;;;;15.80;8.00;;;;;;;21.49;100.00;99625.30;107375;1279;74339;-78
2023/07/28 11:17:40;;;;;;;12.80;8.00;;;;;;;21.56;100.00;99623.23;107483;1278;72615;-78
2023/07/28 11:20:18;;;;;;;12.50;7.70;;;;;;;21.62;100.00;99618.77;107431;1279;61807;-77
2023/07/28 11:22:44;;;;;;;11.20;7.70;;;;;;;21.67;100.00;99613.06;107481;1279;59859;-77
2023/07/28 11:25:10;;;;;;;11.80;7.90;;;;;;;21.76;100.00;99613.64;107081;1279;74585;-78
2023/07/28 11:27:37;;;;;;;11.80;8.20;;;;;;;21.84;100.00;99612.80;107069;1279;59262;-77
2023/07/28 11:30:03;;;;;;;15.30;8.50;;;;;;;21.89;100.00;99613.84;107488;1279;59109;-78
2023/07/28 11:32:31;;;;;;;13.40;8.40;;;;;;;21.98;100.00;99619.29;107564;1278;59030;-78
2023/07/28 11:35:12;;;;;;;13.50;8.00;;;;;;;22.10;100.00;99619.91;107506;1278;59803;-78
2023/07/28 11:37:39;;;;;;;17.00;8.50;;;;;;;22.20;100.00;99623.36;107561;1278;74188;-77
2023/07/28 11:40:06;;;;;;;15.80;8.60;;;;;;;22.30;100.00;99627.55;107519;1279;74306;-77